createdAt,value
2018-03-24T00:00:24.699Z,5.17
2018-03-24T00:01:24.420Z,5.17
2018-03-24T00:02:24.391Z,5.05
2018-03-24T00:03:24.617Z,5.07
2018-03-24T00:04:24.579Z,4.97
2018-03-24T00:05:24.552Z,5
2018-03-24T00:06:24.274Z,5.05
2018-03-24T00:07:24.247Z,4.96
2018-03-24T00:08:24.527Z,4.96
2018-03-24T00:09:24.445Z,4.92
2018-03-24T00:10:24.159Z,4.94
2018-03-24T00:11:24.382Z,4.87
2018-03-24T00:12:24.353Z,4.78
2018-03-24T00:13:24.321Z,4.78
2018-03-24T00:14:24.300Z,4.86
2018-03-24T00:15:24.015Z,4.75
2018-03-24T00:16:23.734Z,4.75
2018-03-24T00:17:24.207Z,4.75
2018-03-24T00:18:24.194Z,4.66
2018-03-24T00:19:23.905Z,4.67
2018-03-24T00:20:23.880Z,4.68
2018-03-24T00:21:24.093Z,4.66
2018-03-24T00:22:23.814Z,4.66
2018-03-24T00:23:23.533Z,4.58
2018-03-24T00:24:23.999Z,4.56
2018-03-24T00:25:23.722Z,4.55
2018-03-24T00:26:23.701Z,4.55
2018-03-24T00:27:23.913Z,4.52
2018-03-24T00:28:23.880Z,4.59
2018-03-24T00:29:23.860Z,4.58
2018-03-24T00:30:23.579Z,4.55
2018-03-24T00:31:23.793Z,4.55
2018-03-24T00:32:23.776Z,4.52
2018-03-24T00:33:23.735Z,4.49
2018-03-24T00:34:23.707Z,4.45
2018-03-24T00:35:23.424Z,4.44
2018-03-24T00:36:23.150Z,4.41
2018-03-24T00:37:23.620Z,4.38
2018-03-24T00:38:23.590Z,4.38
2018-03-24T00:39:23.316Z,4.28
2018-03-24T00:40:23.285Z,4.34
2018-03-24T00:41:23.498Z,4.3
2018-03-24T00:42:23.472Z,4.17
2018-03-24T00:43:23.442Z,4.24
2018-03-24T00:44:23.462Z,4.2
2018-03-24T00:45:23.383Z,4.1
2018-03-24T00:46:23.354Z,4.08
2018-03-24T00:47:23.086Z,4.17
2018-03-24T00:48:23.045Z,4.16
2018-03-24T00:49:23.020Z,4.17
2018-03-24T00:50:23.237Z,4.22
2018-03-24T00:51:23.206Z,4.16
2018-03-24T00:52:23.175Z,4.06
2018-03-24T00:53:23.148Z,4.2
2018-03-24T00:54:23.122Z,4.02
2018-03-24T00:55:23.086Z,4.13
2018-03-24T00:56:22.810Z,4.08
2018-03-24T00:57:23.029Z,3.99
2018-03-24T00:58:23.004Z,4.06
2018-03-24T00:59:22.971Z,4.05
2018-03-24T01:00:22.942Z,4.05
2018-03-24T01:01:22.908Z,4.05
2018-03-24T01:02:22.877Z,3.88
2018-03-24T01:03:22.853Z,3.91
2018-03-24T01:04:22.822Z,3.95
2018-03-24T01:05:22.788Z,3.98
2018-03-24T01:06:22.766Z,3.86
2018-03-24T01:07:22.733Z,3.83
2018-03-24T01:08:22.701Z,3.88
2018-03-24T01:09:22.671Z,3.81
2018-03-24T01:10:22.409Z,3.92
2018-03-24T01:11:22.619Z,3.92
2018-03-24T01:12:22.666Z,3.96
2018-03-24T01:13:22.549Z,3.81
2018-03-24T01:14:22.530Z,3.88
2018-03-24T01:15:22.251Z,3.88
2018-03-24T01:16:22.521Z,3.77
2018-03-24T01:17:22.430Z,3.74
2018-03-24T01:18:22.153Z,3.87
2018-03-24T01:19:22.120Z,3.83
2018-03-24T01:20:22.094Z,3.8
2018-03-24T01:21:22.320Z,3.76
2018-03-24T01:22:22.281Z,3.8
2018-03-24T01:23:22.254Z,3.78
2018-03-24T01:24:22.324Z,3.8
2018-03-24T01:25:22.193Z,3.77
2018-03-24T01:26:22.166Z,3.74
2018-03-24T01:27:22.138Z,3.74
2018-03-24T01:28:21.850Z,3.74
2018-03-24T01:29:22.069Z,3.83
2018-03-24T01:30:21.794Z,3.69
2018-03-24T01:31:21.763Z,3.76
2018-03-24T01:32:21.728Z,3.7
2018-03-24T01:33:21.964Z,3.62
2018-03-24T01:34:21.920Z,3.62
2018-03-24T01:35:21.644Z,3.68
2018-03-24T01:36:21.864Z,3.62
2018-03-24T01:37:21.831Z,3.62
2018-03-24T01:38:21.552Z,3.65
2018-03-24T01:39:21.524Z,3.68
2018-03-24T01:40:21.738Z,3.66
2018-03-24T01:41:21.721Z,3.56
2018-03-24T01:42:21.679Z,3.58
2018-03-24T01:43:21.402Z,3.66
2018-03-24T01:44:21.618Z,3.6
2018-03-24T01:45:21.586Z,3.58
2018-03-24T01:46:21.565Z,3.59
2018-03-24T01:47:21.528Z,3.6
2018-03-24T01:48:21.503Z,3.65
2018-03-24T01:49:21.465Z,3.63
2018-03-24T01:50:21.437Z,3.65
2018-03-24T01:51:21.464Z,3.63
2018-03-24T01:52:21.378Z,3.63
2018-03-24T01:53:21.352Z,3.53
2018-03-24T01:54:21.317Z,3.48
2018-03-24T01:55:21.285Z,3.53
2018-03-24T01:56:21.258Z,3.53
2018-03-24T01:57:21.225Z,3.53
2018-03-24T01:58:21.198Z,3.55
2018-03-24T01:59:21.175Z,3.45
2018-03-24T02:00:21.143Z,3.47
2018-03-24T02:01:21.108Z,3.5
2018-03-24T02:02:21.087Z,3.53
2018-03-24T02:03:21.060Z,3.41
2018-03-24T02:04:21.093Z,3.51
2018-03-24T02:05:20.985Z,3.37
2018-03-24T02:06:20.704Z,3.29
2018-03-24T02:07:20.929Z,3.37
2018-03-24T02:08:20.893Z,3.32
2018-03-24T02:09:20.618Z,3.28
2018-03-24T02:10:20.835Z,3.31
2018-03-24T02:11:20.806Z,3.18
2018-03-24T02:12:20.782Z,3.14
2018-03-24T02:13:20.492Z,3.11
2018-03-24T02:14:20.710Z,3.14
2018-03-24T02:15:20.435Z,3.18
2018-03-24T02:16:20.410Z,3.18
2018-03-24T02:17:20.626Z,3.18
2018-03-24T02:18:20.633Z,3.18
2018-03-24T02:19:20.563Z,3.1
2018-03-24T02:20:20.285Z,3.1
2018-03-24T02:21:20.502Z,3.04
2018-03-24T02:22:20.473Z,3
2018-03-24T02:23:20.190Z,3.01
2018-03-24T02:24:20.407Z,2.9
2018-03-24T02:25:20.376Z,2.97
2018-03-24T02:26:20.369Z,3.01
2018-03-24T02:27:20.076Z,2.97
2018-03-24T02:28:19.789Z,2.93
2018-03-24T02:29:20.257Z,3.01
2018-03-24T02:30:20.232Z,3.01
2018-03-24T02:31:20.201Z,2.97
2018-03-24T02:32:20.192Z,2.97
2018-03-24T02:33:19.892Z,2.86
2018-03-24T02:34:20.104Z,2.9
2018-03-24T02:35:20.087Z,2.92
2018-03-24T02:36:20.045Z,2.89
2018-03-24T02:37:20.016Z,2.92
2018-03-24T02:38:19.989Z,2.87
2018-03-24T02:39:19.960Z,2.95
2018-03-24T02:40:19.673Z,2.92
2018-03-24T02:41:19.892Z,2.92
2018-03-24T02:42:19.620Z,2.86
2018-03-24T02:43:19.830Z,2.89
2018-03-24T02:44:19.300Z,2.72
2018-03-24T02:45:19.774Z,2.82
2018-03-24T02:46:19.757Z,2.79
2018-03-24T02:47:19.722Z,2.85
2018-03-24T02:48:19.676Z,2.75
2018-03-24T02:49:19.641Z,2.85
2018-03-24T02:50:19.618Z,2.71
2018-03-24T02:51:19.585Z,2.72
2018-03-24T02:52:19.560Z,2.75
2018-03-24T02:53:19.531Z,2.72
2018-03-24T02:54:19.496Z,2.75
2018-03-24T02:55:19.465Z,2.74
2018-03-24T02:56:19.448Z,2.74
2018-03-24T02:57:19.402Z,2.64
2018-03-24T02:58:19.115Z,2.65
2018-03-24T02:59:19.097Z,2.74
2018-03-24T03:00:19.310Z,2.65
2018-03-24T03:01:19.031Z,2.64
2018-03-24T03:02:19.256Z,2.65
2018-03-24T03:03:19.233Z,2.69
2018-03-24T03:04:19.186Z,2.6
2018-03-24T03:05:19.161Z,2.54
2018-03-24T03:06:18.885Z,2.57
2018-03-24T03:07:19.101Z,2.61
2018-03-24T03:08:19.055Z,2.57
2018-03-24T03:09:19.032Z,2.56
2018-03-24T03:10:19.004Z,2.51
2018-03-24T03:11:18.966Z,2.47
2018-03-24T03:12:18.944Z,2.49
2018-03-24T03:13:19.052Z,2.47
2018-03-24T03:14:19.064Z,2.46
2018-03-24T03:15:18.843Z,2.5
2018-03-24T03:16:18.814Z,2.51
2018-03-24T03:17:18.787Z,2.5
2018-03-24T03:18:18.755Z,2.46
2018-03-24T03:19:18.718Z,2.42
2018-03-24T03:20:18.696Z,2.47
2018-03-24T03:21:18.662Z,2.38
2018-03-24T03:22:18.626Z,2.42
2018-03-24T03:23:18.590Z,2.46
2018-03-24T03:24:18.561Z,2.42
2018-03-24T03:25:18.528Z,2.44
2018-03-24T03:26:18.251Z,2.31
2018-03-24T03:27:18.472Z,2.35
2018-03-24T03:28:18.438Z,2.31
2018-03-24T03:29:18.417Z,2.24
2018-03-24T03:30:18.383Z,2.26
2018-03-24T03:31:18.374Z,2.26
2018-03-24T03:32:18.314Z,2.18
2018-03-24T03:33:18.279Z,2.2
2018-03-24T03:34:18.001Z,2.22
2018-03-24T03:35:17.974Z,2.18
2018-03-24T03:36:18.188Z,2.17
2018-03-24T03:37:18.239Z,2.17
2018-03-24T03:38:18.128Z,2.2
2018-03-24T03:39:18.099Z,2.17
2018-03-24T03:40:18.067Z,2.14
2018-03-24T03:41:18.033Z,2.22
2018-03-24T03:42:17.999Z,2.18
2018-03-24T03:43:17.726Z,2.31
2018-03-24T03:44:17.942Z,2.26
2018-03-24T03:45:17.665Z,2.22
2018-03-24T03:46:17.882Z,2.2
2018-03-24T03:47:17.700Z,2.1
2018-03-24T03:48:17.570Z,2.15
2018-03-24T03:49:17.535Z,2.18
2018-03-24T03:50:17.752Z,2.15
2018-03-24T03:51:17.720Z,2.14
2018-03-24T03:52:17.690Z,2.14
2018-03-24T03:53:17.662Z,2.14
2018-03-24T03:54:17.633Z,2.08
2018-03-24T03:55:17.599Z,2.14
2018-03-24T03:56:17.569Z,2.04
2018-03-24T03:57:17.283Z,2.1
2018-03-24T03:58:17.519Z,2.13
2018-03-24T03:59:17.221Z,2.06
2018-03-24T04:00:17.437Z,2.06
2018-03-24T04:01:17.416Z,2.08
2018-03-24T04:02:17.380Z,2.07
2018-03-24T04:03:17.104Z,2.08
2018-03-24T04:04:17.323Z,2.06
2018-03-24T04:05:17.284Z,2.13
2018-03-24T04:06:17.252Z,2.1
2018-03-24T04:07:16.971Z,2.1
2018-03-24T04:08:16.938Z,2.08
2018-03-24T04:09:17.155Z,2
2018-03-24T04:10:17.123Z,2
2018-03-24T04:11:17.093Z,2.02
2018-03-24T04:12:17.069Z,1.95
2018-03-24T04:13:16.784Z,2.02
2018-03-24T04:14:16.999Z,2.06
2018-03-24T04:15:16.965Z,1.92
2018-03-24T04:16:16.691Z,1.97
2018-03-24T04:17:16.913Z,2
2018-03-24T04:18:16.938Z,1.91
2018-03-24T04:19:16.844Z,2.04
2018-03-24T04:20:16.820Z,2.04
2018-03-24T04:21:16.533Z,1.95
2018-03-24T04:22:16.758Z,1.92
2018-03-24T04:23:16.465Z,1.94
2018-03-24T04:24:16.687Z,1.91
2018-03-24T04:25:16.655Z,1.92
2018-03-24T04:26:16.621Z,2.04
2018-03-24T04:27:16.591Z,1.91
2018-03-24T04:28:16.313Z,1.92
2018-03-24T04:29:16.287Z,1.88
2018-03-24T04:30:16.496Z,1.84
2018-03-24T04:31:16.472Z,1.91
2018-03-24T04:32:16.434Z,1.97
2018-03-24T04:33:16.404Z,1.92
2018-03-24T04:34:16.132Z,1.91
2018-03-24T04:35:16.345Z,1.89
2018-03-24T04:36:16.311Z,1.88
2018-03-24T04:37:16.281Z,1.88
2018-03-24T04:38:16.289Z,1.85
2018-03-24T04:39:15.715Z,1.85
2018-03-24T04:40:16.191Z,1.94
2018-03-24T04:41:16.153Z,1.92
2018-03-24T04:42:16.124Z,1.91
2018-03-24T04:43:15.862Z,1.88
2018-03-24T04:44:15.811Z,1.95
2018-03-24T04:45:16.025Z,1.88
2018-03-24T04:46:15.748Z,1.81
2018-03-24T04:47:15.462Z,1.76
2018-03-24T04:48:15.432Z,1.74
2018-03-24T04:49:15.652Z,1.81
2018-03-24T04:50:15.622Z,1.84
2018-03-24T04:51:15.833Z,1.76
2018-03-24T04:52:15.554Z,1.8
2018-03-24T04:53:15.528Z,1.76
2018-03-24T04:54:15.742Z,1.77
2018-03-24T04:55:15.471Z,1.78
2018-03-24T04:56:15.688Z,1.73
2018-03-24T04:57:15.394Z,1.73
2018-03-24T04:58:15.762Z,1.68
2018-03-24T04:59:15.590Z,1.58
2018-03-24T05:00:15.304Z,1.74
2018-03-24T05:01:15.518Z,1.6
2018-03-24T05:02:15.487Z,1.63
2018-03-24T05:03:15.211Z,1.7
2018-03-24T05:04:15.428Z,1.7
2018-03-24T05:05:15.149Z,1.66
2018-03-24T05:06:15.122Z,1.78
2018-03-24T05:07:15.332Z,1.66
2018-03-24T05:08:15.306Z,1.8
2018-03-24T05:09:15.022Z,1.77
2018-03-24T05:10:14.986Z,1.78
2018-03-24T05:11:15.208Z,1.77
2018-03-24T05:12:15.173Z,1.81
2018-03-24T05:13:15.168Z,1.8
2018-03-24T05:14:14.875Z,1.81
2018-03-24T05:15:15.081Z,1.91
2018-03-24T05:16:15.047Z,1.91
2018-03-24T05:17:14.767Z,1.94
2018-03-24T05:18:15.020Z,2
2018-03-24T05:19:14.704Z,2.06
2018-03-24T05:20:14.921Z,1.99
2018-03-24T05:21:14.642Z,2.06
2018-03-24T05:22:14.863Z,2.02
2018-03-24T05:23:14.830Z,2
2018-03-24T05:24:14.803Z,2.07
2018-03-24T05:25:14.514Z,2.07
2018-03-24T05:26:14.828Z,2.07
2018-03-24T05:27:14.202Z,2.06
2018-03-24T05:28:14.426Z,2.1
2018-03-24T05:29:14.637Z,2.04
2018-03-24T05:30:14.357Z,2.1
2018-03-24T05:31:14.322Z,2.08
2018-03-24T05:32:14.550Z,2.08
2018-03-24T05:33:14.547Z,2.1
2018-03-24T05:34:14.483Z,2.08
2018-03-24T05:35:14.451Z,2.06
2018-03-24T05:36:14.417Z,2.14
2018-03-24T05:37:14.138Z,2.13
2018-03-24T05:38:14.356Z,2.15
2018-03-24T05:39:14.423Z,2.18
2018-03-24T05:40:14.044Z,2.1
2018-03-24T05:41:14.261Z,2.13
2018-03-24T05:42:14.230Z,2.14
2018-03-24T05:43:13.950Z,2.08
2018-03-24T05:44:13.917Z,2.17
2018-03-24T05:45:13.886Z,2.13
2018-03-24T05:46:14.103Z,2.28
2018-03-24T05:47:13.827Z,2.25
2018-03-24T05:48:14.045Z,2.26
2018-03-24T05:49:14.024Z,2.25
2018-03-24T05:50:13.980Z,2.32
2018-03-24T05:51:13.945Z,2.42
2018-03-24T05:52:13.931Z,2.33
2018-03-24T05:53:13.892Z,2.47
2018-03-24T05:54:13.858Z,2.46
2018-03-24T05:55:13.829Z,2.44
2018-03-24T05:56:13.803Z,2.44
2018-03-24T05:57:13.764Z,2.57
2018-03-24T05:58:13.486Z,2.61
2018-03-24T05:59:13.452Z,2.61
2018-03-24T06:00:13.670Z,2.57
2018-03-24T06:01:13.641Z,2.64
2018-03-24T06:02:13.607Z,2.64
2018-03-24T06:03:13.583Z,2.71
2018-03-24T06:04:13.302Z,2.61
2018-03-24T06:05:13.526Z,2.67
2018-03-24T06:06:13.235Z,2.68
2018-03-24T06:07:13.210Z,2.69
2018-03-24T06:08:13.180Z,2.75
2018-03-24T06:09:13.391Z,2.74
2018-03-24T06:10:13.398Z,2.72
2018-03-24T06:11:13.333Z,2.79
2018-03-24T06:12:13.294Z,2.71
2018-03-24T06:13:13.041Z,2.77
2018-03-24T06:14:13.251Z,2.79
2018-03-24T06:15:13.208Z,2.89
2018-03-24T06:16:12.938Z,2.8
2018-03-24T06:17:12.900Z,2.97
2018-03-24T06:18:13.117Z,3
2018-03-24T06:19:13.090Z,2.95
2018-03-24T06:20:13.060Z,3.04
2018-03-24T06:21:13.027Z,3.1
2018-03-24T06:22:13.053Z,3.13
2018-03-24T06:23:12.969Z,3.11
2018-03-24T06:24:12.934Z,3.16
2018-03-24T06:25:12.655Z,3.26
2018-03-24T06:26:12.637Z,3.31
2018-03-24T06:27:12.854Z,3.4
2018-03-24T06:28:12.816Z,3.36
2018-03-24T06:29:12.791Z,3.53
2018-03-24T06:30:12.506Z,3.56
2018-03-24T06:31:12.727Z,3.55
2018-03-24T06:32:12.701Z,3.51
2018-03-24T06:33:12.671Z,3.63
2018-03-24T06:34:12.390Z,3.65
2018-03-24T06:35:12.362Z,3.66
2018-03-24T06:36:12.603Z,3.76
2018-03-24T06:37:12.300Z,3.77
2018-03-24T06:38:12.577Z,3.78
2018-03-24T06:39:12.495Z,3.88
2018-03-24T06:40:11.965Z,3.78
2018-03-24T06:41:12.435Z,3.91
2018-03-24T06:42:12.403Z,3.96
2018-03-24T06:43:12.127Z,3.98
2018-03-24T06:44:12.346Z,4.06
2018-03-24T06:45:12.069Z,4.1
2018-03-24T06:46:12.044Z,4.06
2018-03-24T06:47:12.262Z,4.22
2018-03-24T06:48:11.983Z,4.3
2018-03-24T06:49:11.705Z,4.26
2018-03-24T06:50:12.178Z,4.32
2018-03-24T06:51:11.649Z,4.32
2018-03-24T06:52:12.123Z,4.41
2018-03-24T06:53:12.091Z,4.53
2018-03-24T06:54:12.066Z,4.55
2018-03-24T06:55:11.788Z,4.62
2018-03-24T06:56:11.754Z,4.56
2018-03-24T06:57:11.974Z,4.67
2018-03-24T06:58:11.950Z,4.75
2018-03-24T06:59:11.923Z,4.71
2018-03-24T07:00:11.396Z,4.75
2018-03-24T07:01:11.866Z,4.8
2018-03-24T07:02:11.836Z,4.77
2018-03-24T07:03:11.560Z,4.9
2018-03-24T07:04:11.784Z,4.86
2018-03-24T07:05:11.757Z,4.87
2018-03-24T07:06:11.722Z,4.87
2018-03-24T07:07:11.453Z,4.96
2018-03-24T07:08:11.673Z,4.93
2018-03-24T07:09:11.391Z,4.97
2018-03-24T07:10:11.614Z,5
2018-03-24T07:11:11.593Z,4.99
2018-03-24T07:12:11.578Z,4.93
2018-03-24T07:13:11.283Z,5.02
2018-03-24T07:14:11.502Z,5.04
2018-03-24T07:15:11.472Z,4.97
2018-03-24T07:16:11.456Z,4.97
2018-03-24T07:17:11.423Z,4.97
2018-03-24T07:18:11.398Z,4.97
2018-03-24T07:19:11.118Z,4.99
2018-03-24T07:20:11.084Z,4.97
2018-03-24T07:21:11.313Z,4.94
2018-03-24T07:22:11.281Z,4.94
2018-03-24T07:23:11.254Z,4.93
2018-03-24T07:24:10.979Z,4.99
2018-03-24T07:25:11.212Z,4.99
2018-03-24T07:26:11.179Z,5.04
2018-03-24T07:27:10.894Z,4.93
2018-03-24T07:28:11.118Z,5
2018-03-24T07:29:10.837Z,4.99
2018-03-24T07:30:10.814Z,5.08
2018-03-24T07:31:10.787Z,5.02
2018-03-24T07:32:10.770Z,5.04
2018-03-24T07:33:10.724Z,5.07
2018-03-24T07:34:10.700Z,5.1
2018-03-24T07:35:10.918Z,5.05
2018-03-24T07:36:10.904Z,5.08
2018-03-24T07:37:10.868Z,5.18
2018-03-24T07:38:10.840Z,5.2
2018-03-24T07:39:10.311Z,5.08
2018-03-24T07:40:10.781Z,5.25
2018-03-24T07:41:10.762Z,5.29
2018-03-24T07:42:10.541Z,5.28
2018-03-24T07:43:10.447Z,5.28
2018-03-24T07:44:10.420Z,5.41
2018-03-24T07:45:10.641Z,5.44
2018-03-24T07:46:10.615Z,5.43
2018-03-24T07:47:10.342Z,5.43
2018-03-24T07:48:10.569Z,5.5
2018-03-24T07:49:10.534Z,5.48
2018-03-24T07:50:10.005Z,5.62
2018-03-24T07:51:10.526Z,5.61
2018-03-24T07:52:10.204Z,5.62
2018-03-24T07:53:10.425Z,5.71
2018-03-24T07:54:10.144Z,5.66
2018-03-24T07:55:10.367Z,5.76
2018-03-24T07:56:10.193Z,5.79
2018-03-24T07:57:10.310Z,5.76
2018-03-24T07:58:10.037Z,5.72
2018-03-24T07:59:10.020Z,5.75
2018-03-24T08:00:10.238Z,5.86
2018-03-24T08:01:10.202Z,5.87
2018-03-24T08:02:09.923Z,5.87
2018-03-24T08:03:10.148Z,5.89
2018-03-24T08:04:10.144Z,5.84
2018-03-24T08:05:10.092Z,5.9
2018-03-24T08:06:09.818Z,5.86
2018-03-24T08:07:09.787Z,5.9
2018-03-24T08:08:10.009Z,5.94
2018-03-24T08:09:09.986Z,5.98
2018-03-24T08:10:09.458Z,6.04
2018-03-24T08:11:12.333Z,6.01
2018-03-24T08:12:10.352Z,6.11
2018-03-24T08:13:09.880Z,6.09
2018-03-24T08:14:09.887Z,6.17
2018-03-24T08:15:09.826Z,6.24
2018-03-24T08:16:10.225Z,6.12
2018-03-24T08:17:09.768Z,6.28
2018-03-24T08:18:09.751Z,6.3
2018-03-24T08:19:09.464Z,6.31
2018-03-24T08:20:09.690Z,6.42
2018-03-24T08:21:09.665Z,6.48
2018-03-24T08:22:09.384Z,6.51
2018-03-24T08:23:09.365Z,6.54
2018-03-24T08:24:09.581Z,6.69
2018-03-24T08:25:09.304Z,6.66
2018-03-24T08:26:09.282Z,6.66
2018-03-24T08:27:09.665Z,6.74
2018-03-24T08:28:09.227Z,6.72
2018-03-24T08:29:09.447Z,6.81
2018-03-24T08:30:09.418Z,6.85
2018-03-24T08:31:09.393Z,6.93
2018-03-24T08:32:09.373Z,6.96
2018-03-24T08:33:09.377Z,7.03
2018-03-24T08:34:09.314Z,7.15
2018-03-24T08:35:09.337Z,7.2
2018-03-24T08:36:09.019Z,7.23
2018-03-24T08:37:09.242Z,7.33
2018-03-24T08:38:08.969Z,7.36
2018-03-24T08:39:09.183Z,7.31
2018-03-24T08:40:09.156Z,7.32
2018-03-24T08:41:08.882Z,7.35
2018-03-24T08:42:09.109Z,7.47
2018-03-24T08:43:09.089Z,7.38
2018-03-24T08:44:08.803Z,7.47
2018-03-24T08:45:09.026Z,7.45
2018-03-24T08:46:09.003Z,7.4
2018-03-24T08:47:09.072Z,7.47
2018-03-24T08:48:08.947Z,7.48
2018-03-24T08:49:08.929Z,7.66
2018-03-24T08:50:09.100Z,7.53
2018-03-24T08:51:08.621Z,7.69
2018-03-24T08:52:08.593Z,7.77
2018-03-24T08:53:08.821Z,7.66
2018-03-24T08:54:08.793Z,7.77
2018-03-24T08:55:09.402Z,7.82
2018-03-24T08:56:08.244Z,7.79
2018-03-24T08:57:08.467Z,7.87
2018-03-24T08:58:08.689Z,7.98
2018-03-24T08:59:08.665Z,7.94
2018-03-24T09:00:08.639Z,8
2018-03-24T09:01:08.120Z,8
2018-03-24T09:02:08.587Z,8.08
2018-03-24T09:03:08.316Z,8.09
2018-03-24T09:04:08.544Z,8.1
2018-03-24T09:05:08.266Z,8.15
2018-03-24T09:06:08.488Z,8.24
2018-03-24T09:07:08.219Z,8.23
2018-03-24T09:08:08.192Z,8.33
2018-03-24T09:09:08.162Z,8.38
2018-03-24T09:10:08.138Z,8.52
2018-03-24T09:11:08.112Z,8.52
2018-03-24T09:12:07.850Z,8.66
2018-03-24T09:13:07.818Z,8.69
2018-03-24T09:14:08.040Z,8.6
2018-03-24T09:15:08.417Z,8.6
2018-03-24T09:16:08.243Z,8.67
2018-03-24T09:17:08.214Z,8.82
2018-03-24T09:18:08.198Z,8.78
2018-03-24T09:19:07.916Z,8.87
2018-03-24T09:20:07.891Z,8.94
2018-03-24T09:21:08.111Z,9.04
2018-03-24T09:22:08.097Z,8.99
2018-03-24T09:23:08.073Z,9.08
2018-03-24T09:24:08.042Z,9.14
2018-03-24T09:25:07.693Z,9.14
2018-03-24T09:26:07.523Z,9.19
2018-03-24T09:27:08.721Z,9.21
2018-03-24T09:28:07.730Z,9.21
2018-03-24T09:29:07.420Z,9.28
2018-03-24T09:30:07.397Z,9.37
2018-03-24T09:31:07.630Z,9.34
2018-03-24T09:32:07.598Z,9.48
2018-03-24T09:33:07.575Z,9.47
2018-03-24T09:34:07.803Z,9.47
2018-03-24T09:35:07.871Z,9.59
2018-03-24T09:36:07.499Z,9.59
2018-03-24T09:37:07.734Z,9.62
2018-03-24T09:38:07.202Z,9.56
2018-03-24T09:39:07.429Z,9.58
2018-03-24T09:40:07.405Z,9.66
2018-03-24T09:41:07.640Z,9.73
2018-03-24T09:42:07.607Z,9.73
2018-03-24T09:43:07.580Z,9.82
2018-03-24T09:44:07.563Z,9.77
2018-03-24T09:45:07.282Z,9.87
2018-03-24T09:46:07.511Z,9.95
2018-03-24T09:47:07.238Z,9.95
2018-03-24T09:48:07.215Z,10.02
2018-03-24T09:49:07.441Z,10.05
2018-03-24T09:50:07.414Z,10.01
2018-03-24T09:51:07.426Z,9.99
2018-03-24T09:52:07.121Z,9.98
2018-03-24T09:53:07.101Z,10.02
2018-03-24T09:54:07.326Z,10.22
2018-03-24T09:55:07.299Z,10.15
2018-03-24T09:56:07.028Z,10.28
2018-03-24T09:57:07.004Z,10.37
2018-03-24T09:58:07.294Z,10.46
2018-03-24T09:59:07.220Z,10.49
2018-03-24T10:00:06.932Z,10.6
2018-03-24T10:01:06.914Z,10.74
2018-03-24T10:02:06.887Z,10.72
2018-03-24T10:03:06.877Z,10.76
2018-03-24T10:04:07.092Z,10.78
2018-03-24T10:05:07.078Z,10.87
2018-03-24T10:06:06.798Z,10.93
2018-03-24T10:07:06.528Z,11.14
2018-03-24T10:08:07.101Z,11.22
2018-03-24T10:09:06.990Z,11.33
2018-03-24T10:10:06.967Z,11.25
2018-03-24T10:11:06.440Z,11.14
2018-03-24T10:12:06.413Z,11.02
2018-03-24T10:13:06.647Z,10.94
2018-03-24T10:14:06.880Z,10.93
2018-03-24T10:15:06.550Z,11.04
2018-03-24T10:16:06.578Z,11.05
2018-03-24T10:17:06.557Z,11.1
2018-03-24T10:18:06.837Z,11.14
2018-03-24T10:19:06.518Z,11.19
2018-03-24T10:20:06.744Z,11.29
2018-03-24T10:21:06.471Z,11.37
2018-03-24T10:22:06.452Z,11.5
2018-03-24T10:23:06.177Z,11.43
2018-03-24T10:24:06.405Z,11.5
2018-03-24T10:25:06.383Z,11.54
2018-03-24T10:26:06.370Z,11.6
2018-03-24T10:27:06.340Z,11.55
2018-03-24T10:28:06.569Z,11.59
2018-03-24T10:29:06.298Z,11.63
2018-03-24T10:30:06.530Z,11.65
2018-03-24T10:31:06.254Z,11.73
2018-03-24T10:32:06.231Z,11.78
2018-03-24T10:33:06.222Z,11.72
2018-03-24T10:34:05.940Z,11.77
2018-03-24T10:35:06.423Z,11.77
2018-03-24T10:36:06.402Z,11.68
2018-03-24T10:37:06.374Z,11.55
2018-03-24T10:38:06.405Z,11.59
2018-03-24T10:39:06.091Z,11.62
2018-03-24T10:40:06.066Z,11.54
2018-03-24T10:41:06.041Z,11.65
2018-03-24T10:42:06.264Z,11.72
2018-03-24T10:43:05.999Z,11.84
2018-03-24T10:44:05.731Z,11.84
2018-03-24T10:45:05.707Z,11.86
2018-03-24T10:46:05.933Z,11.83
2018-03-24T10:47:06.164Z,11.84
2018-03-24T10:48:06.141Z,11.84
2018-03-24T10:49:05.881Z,11.88
2018-03-24T10:50:06.124Z,11.83
2018-03-24T10:51:05.846Z,11.87
2018-03-24T10:52:06.077Z,11.88
2018-03-24T10:53:06.052Z,11.95
2018-03-24T10:54:05.768Z,11.95
2018-03-24T10:55:05.745Z,12.06
2018-03-24T10:56:05.973Z,12.12
2018-03-24T10:57:06.009Z,12.25
2018-03-24T10:58:06.017Z,12.37
2018-03-24T10:59:05.661Z,12.35
2018-03-24T11:00:05.638Z,12.43
2018-03-24T11:01:05.368Z,12.49
2018-03-24T11:02:05.855Z,12.47
2018-03-24T11:03:05.329Z,12.58
2018-03-24T11:04:05.856Z,12.76
2018-03-24T11:05:05.785Z,12.86
2018-03-24T11:06:05.514Z,12.78
2018-03-24T11:07:05.749Z,12.8
2018-03-24T11:08:05.477Z,12.85
2018-03-24T11:09:05.706Z,12.83
2018-03-24T11:10:05.684Z,12.85
2018-03-24T11:11:05.412Z,12.73
2018-03-24T11:12:05.643Z,12.76
2018-03-24T11:13:05.377Z,12.72
2018-03-24T11:14:05.351Z,12.64
2018-03-24T11:15:05.338Z,12.61
2018-03-24T11:16:05.064Z,12.6
2018-03-24T11:17:05.543Z,12.7
2018-03-24T11:18:05.523Z,12.62
2018-03-24T11:19:05.551Z,12.62
2018-03-24T11:20:04.985Z,12.72
2018-03-24T11:21:05.214Z,12.72
2018-03-24T11:22:05.440Z,12.7
2018-03-24T11:23:05.175Z,12.72
2018-03-24T11:24:05.402Z,12.62
2018-03-24T11:25:05.382Z,12.64
2018-03-24T11:26:05.120Z,12.75
2018-03-24T11:27:05.101Z,12.73
2018-03-24T11:28:05.323Z,12.87
2018-03-24T11:29:05.057Z,12.76
2018-03-24T11:30:05.049Z,12.76
2018-03-24T11:31:05.272Z,12.83
2018-03-24T11:32:05.000Z,12.79
2018-03-24T11:33:05.028Z,12.73
2018-03-24T11:34:05.210Z,12.85
2018-03-24T11:35:05.195Z,12.85
2018-03-24T11:36:05.663Z,12.85
2018-03-24T11:37:05.399Z,12.87
2018-03-24T11:38:05.183Z,12.86
2018-03-24T11:39:05.112Z,12.83
2018-03-24T11:40:04.861Z,12.94
2018-03-24T11:41:04.829Z,13.04
2018-03-24T11:42:05.067Z,12.95
2018-03-24T11:43:05.043Z,13.01
2018-03-24T11:44:05.032Z,13.16
2018-03-24T11:45:05.148Z,13.23
2018-03-24T11:46:05.014Z,13.28
2018-03-24T11:47:04.968Z,13.38
2018-03-24T11:48:04.947Z,13.54
2018-03-24T11:49:04.681Z,13.57
2018-03-24T11:50:04.914Z,13.62
2018-03-24T11:51:04.898Z,13.59
2018-03-24T11:52:04.630Z,13.78
2018-03-24T11:53:04.609Z,13.71
2018-03-24T11:54:04.343Z,13.65
2018-03-24T11:55:04.829Z,13.78
2018-03-24T11:56:04.559Z,13.74
2018-03-24T11:57:04.539Z,13.74
2018-03-24T11:58:04.772Z,13.79
2018-03-24T11:59:04.751Z,13.72
2018-03-24T12:00:04.239Z,13.9
2018-03-24T12:01:04.720Z,13.92
2018-03-24T12:02:04.707Z,13.97
2018-03-24T12:03:04.696Z,13.95
2018-03-24T12:04:04.418Z,14
2018-03-24T12:05:04.649Z,14.14
2018-03-24T12:06:04.639Z,14.04
2018-03-24T12:07:04.365Z,14
2018-03-24T12:08:04.350Z,14.05
2018-03-24T12:09:04.329Z,14.08
2018-03-24T12:10:04.321Z,14
2018-03-24T12:11:04.302Z,14.05
2018-03-24T12:12:04.531Z,14.08
2018-03-24T12:13:04.515Z,14.07
2018-03-24T12:14:04.496Z,14.05
2018-03-24T12:15:04.233Z,14.05
2018-03-24T12:16:04.462Z,13.96
2018-03-24T12:17:04.195Z,13.93
2018-03-24T12:18:04.201Z,13.85
2018-03-24T12:19:04.482Z,13.78
2018-03-24T12:20:04.398Z,13.71
2018-03-24T12:21:04.377Z,13.78
2018-03-24T12:22:04.358Z,13.72
2018-03-24T12:23:04.344Z,13.79
2018-03-24T12:24:04.078Z,13.95
2018-03-24T12:25:03.808Z,14.03
2018-03-24T12:26:04.047Z,14.14
2018-03-24T12:27:04.025Z,14.18
2018-03-24T12:28:04.014Z,14.15
2018-03-24T12:29:03.998Z,14.26
2018-03-24T12:30:03.977Z,14.23
2018-03-24T12:31:04.218Z,14.25
2018-03-24T12:32:03.940Z,14.22
2018-03-24T12:33:04.059Z,14.23
2018-03-24T12:34:04.169Z,14.17
2018-03-24T12:35:03.655Z,14.28
2018-03-24T12:36:04.124Z,14.37
2018-03-24T12:37:03.862Z,14.48
2018-03-24T12:38:04.092Z,14.53
2018-03-24T12:39:03.824Z,14.47
2018-03-24T12:40:03.562Z,14.5
2018-03-24T12:41:03.796Z,14.51
2018-03-24T12:42:04.030Z,14.5
2018-03-24T12:43:04.027Z,14.53
2018-03-24T12:44:03.744Z,14.47
2018-03-24T12:45:03.977Z,14.44
2018-03-24T12:46:03.714Z,14.59
2018-03-24T12:47:03.697Z,14.53
2018-03-24T12:48:03.679Z,14.44
2018-03-24T12:49:03.911Z,14.37
2018-03-24T12:50:03.895Z,14.37
2018-03-24T12:51:03.426Z,14.35
2018-03-24T12:52:03.369Z,14.47
2018-03-24T12:53:03.601Z,14.5
2018-03-24T12:54:03.834Z,14.53
2018-03-24T12:55:03.568Z,14.63
2018-03-24T12:56:03.552Z,14.6
2018-03-24T12:57:03.536Z,14.72
2018-03-24T12:58:03.522Z,14.7
2018-03-24T12:59:03.764Z,14.69
2018-03-24T13:00:03.487Z,14.72
2018-03-24T13:01:03.472Z,14.59
2018-03-24T13:02:03.206Z,14.44
2018-03-24T13:03:03.693Z,14.51
2018-03-24T13:04:03.425Z,14.5
2018-03-24T13:05:03.407Z,14.5
2018-03-24T13:06:03.644Z,14.37
2018-03-24T13:07:03.628Z,14.36
2018-03-24T13:08:03.360Z,14.25
2018-03-24T13:09:03.343Z,14.22
2018-03-24T13:10:03.573Z,14.18
2018-03-24T13:11:03.309Z,14.05
2018-03-24T13:12:03.648Z,13.95
2018-03-24T13:13:03.526Z,13.9
2018-03-24T13:14:03.277Z,13.97
2018-03-24T13:15:03.495Z,13.95